Main page
METAR-TAF:

METAR-TAF

Airports :

Léopold Sédar Senghor International Airport

Dakar, Senegal

latitude: 14-44N, longitude: 017-30W, elevation: 27 m

Current weather observation

The report was made 50 minutes ago, at 05:00 UTC
Wind 4 kt from the West/Southwest
Temperature 26°C
Humidity 74%
Pressure 1011 hPa
Visibility: 8000 m
Scattered clouds at a height of 1300 ft

METAR: GOOY 170500Z 24004KT 8000 SCT013 26/21 Q1011 NOSIG

Time: 05:50 (05:50 UTC)

Forecast

The report was made 20 minutes ago, at 05:30 UTC
Forecast valid from 17 at 06 UTC to 18 at 12 UTC
Wind 10 kt from the Southwest
Visibility: 8000 m
Scattered clouds at a height of 1300 ft

TAF: GOOY 170530Z 1706/1812 22010KT 8000 SCT013

Weather observations and forecasts of more than 4000 airports (METAR and TAF reports).

The available stations are represented by yellow and red dots on the map.

Hover mouse over dot to see the name of the station.

Then click to see weather observations and forecasts.

To change the map : click on the green buttons with a black cross to zoom in, on the green button with a dash to zoom out, or on the green arrows for adjacent maps.


METAR-TAF: